Ismay, MT

4:07 PM MDT on August 27, 2014 (GMT -0600)
RAWS PINE HILL MT US | Change Station
CLOSE
Current Station
Personal Weather Station
Location: Mildred, MT
Elevation: 2648 ft
Nearby Weather Stations

Elev 2648 ft 46.78 °N, 104.58 °W | Updated 43 minutes ago

Clear
Clear
84 °F
Feels Like 82 °F
N
7
Wind Variable Wind from SSE
Gusts 14.0 mph

Today
High -- | Low -- °F
--% Chance of Precip.
Yesterday
High -- | Low -- °F
Precip. -- in
6:12 AM 7:47 PM
Waxing Crescent, 5% visible
Pressure 30.00 in
Visibility 10.0 miles
Clouds Clear
Heat Index 82 °F
Dew Point 47 °F
Humidity 28%
Rainfall 0.00 in
Snow Depth Not available.
UV 5 out of 12
Pollen 9.30 out of 12
Air Quality Not available.
Flu Activity Not available.
METAR KBHK 272151Z AUTO 13005KT 10SM CLR 27/10 A3004 RMK AO2 SLP158 T02720100

More Conditions Fewer Conditions

Pressure 30.00 in
Visibility 10.0 miles
Clouds Clear
Heat Index 82 °F
Dew Point 47 °F
Humidity 28%
Rainfall 0.00 in
Snow Depth Not available.
UV 5 out of 12
Pollen 9.30 out of 12
Air Quality Not available.
Flu Activity Not available.
METAR KBHK 272151Z AUTO 13005KT 10SM CLR 27/10 A3004 RMK AO2 SLP158 T02720100

More Conditions Fewer Conditions

10-Day Weather Forecast

Almanac

Astronomy

Aug. 27, 2014 Rise Set
Actual Time 6:12 AM MDT 7:47 PM MDT
Civil Twilight 5:41 AM MDT 8:18 PM MDT
Nautical Twilight 5:02 AM MDT 8:57 PM MDT
Astronomical Twilight 4:21 AM MDT 9:38 PM MDT
Moon 8:21 AM MDT 8:29 PM MDT
Length of Visible Light 14h 37m
Length of Day
13h 34m
Tomorrow will be 3m 9s shorter.
Waxing Crescent, 5% of the Moon is Illuminated
Today
Waxing Crescent
Sep 2
First Quarter
Sep 8
Full
Sep 15
Last Quarter
Sep 24
New

Today's Extremes

State Highs State Lows

Community

WunderPhotos

Upload Photos

1,747,798 photos uploaded!

Nearby

Snow Depth

Station Depth Elevation
Crystal Lake 0 in 6050 ft
Cole Creek 0 in 7850 ft
White Mill 0 in 8700 ft
Northeast Entrance 1 in 7350 ft
Shower Falls 0 in 8100 ft

Earthquake Activity

City Distance Mag. Time & Date
No recent earthquake activity has been reported nearby.
Minimum magnitude displayed is 2.5.

Coastal Water Temperatures

Place Temperature
No Stations Reporting

Nearby Weather Stations